Main page
METAR-TAF:

METAR-TAF

Airports :

Nador International Airport

Nador, Morocco

latitude: 34-59-20N, longitude: 003-01-42W, elevation: 175 m

Current weather observation

The report was made 46 minutes ago, at 05:00 UTC
Wind 3 kt from the West/Southwest, varying between South and West/Northwest
Temperature 10°C
Humidity 87%
Pressure 1008 hPa
Visibility: 6000 m

METAR: GMMW 080500Z 24003KT 170V290 6000 NSC 10/08 Q1008 NOSIG

Time: 06:46 (05:46 UTC)

Forecast

The report was made 6 hours and 46 minutes ago, at 23:00 UTC
Forecast valid from 08 at 00 UTC to 09 at 06 UTC
Wind 2 kt from variable directions
Visibility: 6000 m
Few clouds at a height of 2000 ft
Broken clouds at a height of 10000 ft
Probability 30%
from 08 at 00 UTC to 08 at 06 UTC
Visibility: 3000 m
mist

TAF: GMMW 072300Z 0800/0906 VRB02KT 6000 FEW020 BKN100 PROB30 0800/0806 3000 BR

Weather observations and forecasts of more than 4000 airports (METAR and TAF reports).

The available stations are represented by yellow and red dots on the map.

Hover mouse over dot to see the name of the station.

Then click to see weather observations and forecasts.

To change the map : click on the green buttons with a black cross to zoom in, on the green button with a dash to zoom out, or on the green arrows for adjacent maps.


METAR-TAF: